Friday, July 29, 2016, 3:37 PM EDT

KESN, Easton / Newman Field

Location: Easton, MD, United States Lat: 38.8
Local Time: 3:37 PM EDT (19:37 GMT) Lon: -76.067
Time Zone: US/Eastern Elev: 72 ft

Show me the last for .
Show Decoded

2016-07-29 14:50 METAR KESN 291850Z 01006KT 10SM BKN031 30/24 A2990 =
2016-07-29 13:55 METAR KESN 291755Z 36006KT 10SM BKN045 30/24 A2990 =
2016-07-29 12:50 METAR KESN 291650Z 03008KT 10SM BKN021 29/24 A2989 =
2016-07-29 11:50 METAR KESN 291550Z 01006KT 10SM BKN014 27/23 A2990 =
2016-07-29 10:50 METAR KESN 291450Z 02005KT 10SM BKN011 27/24 A2990 =
2016-07-29 09:50 METAR KESN 291350Z 03009KT 10SM SCT009 BKN011 25/24 A2988 =
2016-07-29 08:50 METAR KESN 291250Z 02009KT 6SM BR BKN007 OVC011 24/24 A2988 =
2016-07-29 07:50 METAR KESN 291150Z 01004KT 5SM BR SCT004 BKN007 OVC023 24/24 A2986 =
2016-07-29 06:53 METAR KESN 291053Z 00000KT 5SM BR SCT004 BKN009 OVC023 24/24 A2985 =
2016-07-29 05:53 METAR KESN 290953Z 04003KT 2 1/2SM BR BKN007 OVC012 24/24 A2983 =
2016-07-29 05:50 METAR KESN 290950Z AUTO 00000KT 7SM -DZ BKN007 OVC012 24/24 A2983 RMK AO2 P0001
                 T02400240 =
2016-07-29 05:33 METAR KESN 290933Z AUTO 00000KT 5SM DZ SCT005 OVC014 24/24 A2982 RMK AO2 P0001
                 T02400240 =
2016-07-29 05:13 METAR KESN 290913Z AUTO 07003KT 5SM DZ SCT003 OVC014 24/24 A2982 RMK AO2
                 T02400240 =
2016-07-29 04:53 METAR KESN 290853Z AUTO 00000KT 7SM BKN003 OVC014 24/24 A2982 RMK AO2 T02400240
                 =
2016-07-29 04:33 METAR KESN 290833Z AUTO 10003KT 7SM BKN003 BKN016 24/24 A2981 RMK AO2 T02400240
                 =
2016-07-29 04:13 METAR KESN 290813Z AUTO 00000KT 7SM -RA SCT003 SCT023 SCT120 24/24 A2982 =
2016-07-29 03:53 METAR KESN 290753Z AUTO 07005KT 7SM -RA CLR 24/24 A2978 RMK AO2 P0002 T02370237
                 =
2016-07-29 03:33 METAR KESN 290733Z AUTO 09003KT 7SM RA SCT017 SCT021 24/24 A2980 =
2016-07-29 03:13 METAR KESN 290713Z AUTO 08004KT 7SM RA SCT003 SCT017 BKN024 24/24 A2982 RMK AO2
                 T02380238 =
2016-07-29 02:53 METAR KESN 290653Z AUTO 08004KT 7SM SCT003 BKN019 BKN025 24/24 A2983 RMK AO2
                 T02370237 =
2016-07-29 02:13 METAR KESN 290613Z AUTO 00000KT 7SM -RA SCT003 BKN027 BKN040 24/24 A2986 =
2016-07-29 01:53 METAR KESN 290553Z AUTO 10003KT 10SM BKN003 OVC030 24/24 A2987 RMK AO2 T02370237
                 =
2016-07-29 01:33 METAR KESN 290533Z AUTO 00000KT 10SM BKN003 BKN055 24/24 A2989 RMK AO2 T02370237
                 =
2016-07-29 01:13 METAR KESN 290513Z AUTO 09003KT 10SM SCT029 24/24 A2988 RMK AO2 T02360236 =
2016-07-29 00:53 METAR KESN 290453Z AUTO 05004KT 10SM SCT029 24/24 A2989 RMK AO2 P0001 T02370237
                 =
2016-07-29 00:33 METAR KESN 290433Z AUTO 10003KT 10SM -RA CLR 24/24 A2988 RMK AO2 P0001 T02370237
                 =
2016-07-29 00:13 METAR KESN 290413Z AUTO 07004KT 10SM SCT006 SCT011 SCT023 24/24 A2988 RMK AO2
                 T02400240 =
2016-07-28 23:53 METAR KESN 290353Z AUTO 00000KT 10SM -DZ BKN006 BKN011 BKN050 24/24 A2990 RMK
                 AO2 P0004 T02400240 =
2016-07-28 23:32 METAR KESN 290332Z AUTO 09008KT 10SM -RA BKN006 BKN014 BKN031 24/24 A2987 RMK
                 AO2 P0003 T02400240 =
2016-07-28 23:12 METAR KESN 290312Z AUTO 13005KT 10SM RA SCT014 SCT034 BKN050 24/24 A2989 RMK AO2
                 P0001 T02410241 =
2016-07-28 22:52 METAR KESN 290252Z AUTO 00000KT 10SM -RA SCT010 SCT016 SCT032 24/24 A2991 RMK
                 AO2 P0004 T02420242 =
2016-07-28 22:32 METAR KESN 290232Z AUTO 00000KT 10SM RA CLR 25/24 A2988 RMK AO2 P0001 T02450244
                 =
2016-07-28 22:12 METAR KESN 290212Z AUTO 01004KT 10SM CLR 24/24 A2987 RMK AO2 T02420242 =
2016-07-28 20:50 METAR KESN 290050Z 14006KT 10SM OVC047 24/24 A2988 =
2016-07-28 19:55 METAR KESN 282355Z 13006KT 10SM OVC047 24/24 A2991 =
2016-07-28 18:55 METAR KESN 282255Z 07007KT 10SM BKN017 25/25 A2987 =
2016-07-28 17:55 METAR KESN 282155Z 01018G22KT 10SM BKN055 29/25 A2989 =
2016-07-28 16:55 METAR KESN 282055Z 12007KT 10SM BKN055 30/25 A2987 =
2016-07-28 15:51 METAR KESN 281951Z 15009KT 10SM SCT055 30/26 A2985 =

Support USWX by starting your Amazon purchase here.